Time;durP1;ratioP1;P1;durP2;ratioP2;P2;SDS_P1;SDS_P2;PMS_P1;PMS_P2;Temp;Humidity;BMP_temperature;BMP_pressure;BME280_temperature;BME280_humidity;BME280_pressure;Samples;Min_cycle;Max_cycle;Signal;HPM_P1;HPM_P2
2021/12/31 00:02:15;;;;;;;24.50;4.63;;;11.40;99.90;;;;;;5130404;27;20043;-81
2021/12/31 00:04:40;;;;;;;23.33;5.22;;;11.40;99.90;;;;;;5125010;27;20183;-80
2021/12/31 00:07:06;;;;;;;25.40;3.97;;;11.40;99.90;;;;;;5114865;27;20058;-81
2021/12/31 00:09:32;;;;;;;22.67;4.18;;;11.30;99.90;;;;;;5084398;28;20051;-82
2021/12/31 00:11:57;;;;;;;16.60;3.75;;;11.30;99.90;;;;;;5121715;27;20050;-81
2021/12/31 00:14:23;;;;;;;20.80;4.88;;;11.30;99.90;;;;;;5102922;27;20035;-82
2021/12/31 00:16:49;;;;;;;32.22;6.35;;;11.30;99.90;;;;;;5115040;28;20042;-82
2021/12/31 00:19:15;;;;;;;24.42;4.35;;;11.30;99.90;;;;;;5125116;27;20180;-78
2021/12/31 00:21:45;;;;;;;22.45;5.18;;;11.20;99.90;;;;;;5120009;27;20027;-81
2021/12/31 00:24:10;;;;;;;34.08;7.18;;;11.30;99.90;;;;;;5115288;27;20040;-80
2021/12/31 00:26:36;;;;;;;18.55;4.10;;;11.20;99.90;;;;;;5098821;28;20409;-82
2021/12/31 00:29:02;;;;;;;19.08;3.70;;;11.20;99.90;;;;;;5117571;28;20079;-76
2021/12/31 00:31:27;;;;;;;20.17;5.10;;;11.30;99.90;;;;;;5101932;28;20482;-81
2021/12/31 00:33:53;;;;;;;18.30;4.78;;;11.30;99.90;;;;;;5120821;28;20036;-82
2021/12/31 00:36:19;;;;;;;24.50;4.20;;;11.30;99.90;;;;;;5131403;28;20043;-80
2021/12/31 00:38:45;;;;;;;29.25;5.50;;;11.40;99.90;;;;;;5108920;28;20035;-81
2021/12/31 00:41:10;;;;;;;17.20;3.40;;;11.40;99.90;;;;;;5100215;28;20047;-83
2021/12/31 00:43:36;;;;;;;20.00;4.72;;;11.40;99.90;;;;;;5112699;28;20040;-82
2021/12/31 00:46:02;;;;;;;24.27;5.47;;;11.40;99.90;;;;;;5117912;28;20054;-78
2021/12/31 00:48:29;;;;;;;28.95;5.80;;;11.40;99.90;;;;;;5129682;28;20039;-81
2021/12/31 00:50:56;;;;;;;26.60;5.72;;;11.40;99.90;;;;;;5113927;28;20031;-82
2021/12/31 00:53:22;;;;;;;16.83;4.32;;;11.40;99.90;;;;;;5123530;27;20075;-80
2021/12/31 00:55:48;;;;;;;26.15;5.45;;;11.40;99.90;;;;;;5126196;27;20063;-80
2021/12/31 00:58:14;;;;;;;23.73;5.40;;;11.50;99.90;;;;;;5118469;27;20071;-78
2021/12/31 01:00:39;;;;;;;17.52;4.95;;;11.50;99.90;;;;;;5118204;27;20038;-80
2021/12/31 01:03:05;;;;;;;39.22;9.00;;;11.50;99.90;;;;;;5116671;27;20035;-81
2021/12/31 01:05:31;;;;;;;23.48;6.05;;;11.50;99.90;;;;;;5107588;27;20035;-82
2021/12/31 01:07:56;;;;;;;28.35;6.30;;;11.60;99.90;;;;;;5099676;28;20040;-80
2021/12/31 01:10:26;;;;;;;17.45;3.58;;;11.60;99.90;;;;;;5110036;27;20085;-82
2021/12/31 01:12:51;;;;;;;27.92;4.13;;;11.60;99.90;;;;;;5114197;27;20050;-82
2021/12/31 01:15:22;;;;;;;20.13;4.78;;;11.70;99.90;;;;;;5102813;28;20036;-83
2021/12/31 01:20:26;;;;;;;22.08;4.82;;;11.70;99.90;;;;;;5124950;27;20092;-82
2021/12/31 01:22:51;;;;;;;28.63;7.38;;;11.80;99.90;;;;;;5132080;27;20035;-83
2021/12/31 01:25:17;;;;;;;21.17;4.93;;;11.80;99.90;;;;;;5113385;27;20066;-82
2021/12/31 01:27:43;;;;;;;18.75;5.28;;;11.80;99.90;;;;;;5121130;27;20603;-82
2021/12/31 01:30:13;;;;;;;17.98;4.20;;;11.80;99.90;;;;;;5113173;27;20050;-83
2021/12/31 01:32:41;;;;;;;19.73;4.38;;;11.80;99.90;;;;;;5108972;27;20090;-82
2021/12/31 01:35:07;;;;;;;24.65;5.82;;;11.90;99.90;;;;;;5132482;27;20051;-82
2021/12/31 01:37:33;;;;;;;20.92;3.90;;;11.90;99.90;;;;;;5098067;28;20043;-82
2021/12/31 01:39:58;;;;;;;17.20;4.75;;;11.90;99.90;;;;;;5112941;28;20631;-82
2021/12/31 01:42:31;;;;;;;15.57;5.28;;;11.90;99.90;;;;;;5112949;27;20045;-82
2021/12/31 01:45:01;;;;;;;26.98;5.78;;;11.80;99.90;;;;;;5113051;27;20391;-82
2021/12/31 01:50:11;;;;;;;17.73;4.55;;;11.80;99.90;;;;;;5110913;27;20040;-81
2021/12/31 01:52:40;;;;;;;26.65;4.68;;;11.70;99.90;;;;;;5126047;27;20402;-81
2021/12/31 01:55:12;;;;;;;22.02;4.57;;;11.70;99.90;;;;;;5112726;27;20084;-83
2021/12/31 01:57:40;;;;;;;10.98;3.17;;;11.70;99.90;;;;;;5118582;27;20074;-81
2021/12/31 02:00:07;;;;;;;15.38;4.80;;;11.70;99.90;;;;;;5126528;27;20042;-81
2021/12/31 02:02:32;;;;;;;19.40;4.60;;;11.70;99.90;;;;;;5118680;27;20066;-82
2021/12/31 02:04:58;;;;;;;17.98;4.22;;;11.70;99.90;;;;;;5112775;28;20122;-82
2021/12/31 02:07:24;;;;;;;20.35;4.85;;;11.70;99.90;;;;;;5113235;27;20043;-82
2021/12/31 02:09:54;;;;;;;15.15;4.05;;;11.70;99.90;;;;;;5112376;28;20119;-83
2021/12/31 02:12:21;;;;;;;16.88;4.47;;;11.70;99.90;;;;;;5111987;27;20493;-82
2021/12/31 02:14:47;;;;;;;12.18;2.67;;;11.70;99.90;;;;;;5112288;28;20512;-83
2021/12/31 02:17:13;;;;;;;15.65;4.18;;;11.60;99.90;;;;;;5119975;27;20042;-79
2021/12/31 02:19:39;;;;;;;11.30;3.55;;;11.60;99.90;;;;;;5100093;27;20122;-82
2021/12/31 02:22:05;;;;;;;24.75;4.63;;;11.70;99.90;;;;;;5112971;27;20036;-82
2021/12/31 02:24:31;;;;;;;12.90;3.42;;;11.70;99.90;;;;;;5112083;28;20043;-83
2021/12/31 02:26:56;;;;;;;20.65;4.95;;;11.70;99.90;;;;;;5097761;27;20421;-83
2021/12/31 02:29:24;;;;;;;18.65;4.13;;;11.70;99.90;;;;;;5097827;27;20046;-82
2021/12/31 02:31:50;;;;;;;12.77;2.95;;;11.70;99.90;;;;;;5118418;27;20497;-82
2021/12/31 02:34:16;;;;;;;16.42;3.60;;;11.70;99.90;;;;;;5116860;27;20046;-82
2021/12/31 02:36:42;;;;;;;17.73;3.80;;;11.70;99.90;;;;;;5111744;27;20044;-83
2021/12/31 02:39:07;;;;;;;8.80;3.15;;;11.80;99.90;;;;;;5123196;27;20039;-83
2021/12/31 02:41:33;;;;;;;17.95;5.10;;;11.80;99.90;;;;;;5120519;27;20548;-83
2021/12/31 02:43:59;;;;;;;17.40;3.10;;;11.70;99.90;;;;;;5118879;27;20499;-83
2021/12/31 02:46:24;;;;;;;21.70;5.10;;;11.70;99.90;;;;;;5113672;27;20031;-82
2021/12/31 02:48:56;;;;;;;29.63;8.23;;;11.70;99.90;;;;;;5101708;27;20039;-82
2021/12/31 02:51:22;;;;;;;14.57;3.50;;;11.70;99.90;;;;;;5111233;27;20150;-83
2021/12/31 02:53:52;;;;;;;14.27;3.92;;;11.70;99.90;;;;;;5115249;27;20035;-83
2021/12/31 02:56:19;;;;;;;11.32;3.60;;;11.80;99.90;;;;;;5130293;27;20043;-84
2021/12/31 02:58:45;;;;;;;27.83;5.97;;;11.80;99.90;;;;;;5118521;27;20038;-82
2021/12/31 03:01:12;;;;;;;16.05;3.78;;;11.90;99.90;;;;;;5111313;27;20082;-81
2021/12/31 03:03:40;;;;;;;17.63;4.22;;;11.90;99.90;;;;;;5114300;27;20039;-82
2021/12/31 03:06:09;;;;;;;19.08;4.63;;;11.90;99.90;;;;;;5113290;27;20458;-83
2021/12/31 03:08:45;;;;;;;13.85;3.63;;;11.90;99.90;;;;;;5097369;28;20050;-82
2021/12/31 03:11:12;;;;;;;16.45;3.08;;;11.90;99.90;;;;;;5109176;27;20069;-83
2021/12/31 03:13:39;;;;;;;10.07;3.85;;;11.90;99.90;;;;;;5098296;27;20047;-82
2021/12/31 03:16:07;;;;;;;11.43;3.42;;;11.90;99.90;;;;;;5111793;27;20130;-82
2021/12/31 03:18:33;;;;;;;13.90;3.50;;;11.90;99.90;;;;;;5116813;27;20247;-81
2021/12/31 03:21:09;;;;;;;12.93;3.13;;;11.90;99.90;;;;;;5119439;27;20036;-83
2021/12/31 03:23:35;;;;;;;17.55;4.72;;;11.90;99.90;;;;;;5123343;27;20039;-84
2021/12/31 03:26:00;;;;;;;14.73;3.03;;;11.90;99.90;;;;;;5110105;27;20131;-82
2021/12/31 03:28:26;;;;;;;12.15;3.33;;;11.90;99.90;;;;;;5115460;27;20439;-83
2021/12/31 03:30:52;;;;;;;11.40;3.60;;;11.80;99.90;;;;;;5127539;27;20071;-83
2021/12/31 03:33:18;;;;;;;24.80;4.28;;;11.90;99.90;;;;;;5094198;27;20066;-83
2021/12/31 03:35:44;;;;;;;15.88;4.22;;;11.90;99.90;;;;;;5109549;27;20486;-82
2021/12/31 03:38:10;;;;;;;10.40;2.72;;;11.90;99.90;;;;;;5078133;27;20043;-82
2021/12/31 03:40:35;;;;;;;12.95;3.05;;;11.90;99.90;;;;;;5116986;27;20039;-83
2021/12/31 03:43:01;;;;;;;19.10;4.00;;;11.80;99.90;;;;;;5130191;27;20053;-82
2021/12/31 03:45:27;;;;;;;12.52;3.50;;;11.80;99.90;;;;;;5123871;27;20035;-81
2021/12/31 03:47:53;;;;;;;14.63;3.28;;;11.80;99.90;;;;;;5127012;27;20135;-83
2021/12/31 03:50:19;;;;;;;14.93;3.38;;;11.90;99.90;;;;;;5110769;27;20070;-82
2021/12/31 03:52:44;;;;;;;14.10;3.53;;;11.90;99.90;;;;;;5119212;27;20039;-82
2021/12/31 03:55:10;;;;;;;11.43;3.05;;;11.90;99.90;;;;;;5114347;28;20169;-81
2021/12/31 03:57:37;;;;;;;19.65;3.85;;;11.90;99.90;;;;;;5125143;27;20662;-83
2021/12/31 04:00:05;;;;;;;18.27;4.75;;;11.90;99.90;;;;;;5112606;27;20047;-82
2021/12/31 04:02:30;;;;;;;21.58;4.13;;;11.90;99.90;;;;;;5112131;27;20120;-83
2021/12/31 04:04:56;;;;;;;28.50;4.18;;;11.90;99.90;;;;;;5127981;27;20070;-81
2021/12/31 04:07:22;;;;;;;18.60;3.78;;;12.00;99.90;;;;;;5125088;27;20051;-83
2021/12/31 04:09:47;;;;;;;20.33;3.42;;;12.10;99.90;;;;;;5130821;27;20037;-85
2021/12/31 04:12:13;;;;;;;17.90;4.07;;;12.10;99.90;;;;;;5098640;28;20526;-81
2021/12/31 04:14:38;;;;;;;10.45;2.75;;;12.10;99.90;;;;;;5092834;28;20036;-83
2021/12/31 04:17:04;;;;;;;12.07;4.13;;;12.10;99.90;;;;;;5091538;28;20047;-84
2021/12/31 04:19:30;;;;;;;9.63;2.72;;;12.10;99.90;;;;;;5112677;28;20396;-82
2021/12/31 04:21:56;;;;;;;12.63;3.17;;;12.20;99.90;;;;;;5114323;27;20109;-82
2021/12/31 04:24:52;;;;;;;10.93;3.58;;;12.30;99.90;;;;;;5091726;28;20485;-82
2021/12/31 04:27:17;;;;;;;10.75;3.22;;;12.30;99.90;;;;;;5094681;28;20047;-82
2021/12/31 04:29:50;;;;;;;13.15;3.53;;;12.40;99.90;;;;;;5115966;27;20718;-75
2021/12/31 04:32:15;;;;;;;8.32;2.45;;;12.40;99.90;;;;;;5115155;27;20134;-84
2021/12/31 04:34:41;;;;;;;12.23;2.83;;;12.30;99.90;;;;;;5095948;28;20496;-81
2021/12/31 04:37:06;;;;;;;15.70;4.78;;;12.40;99.90;;;;;;5112440;28;20099;-84
2021/12/31 04:39:32;;;;;;;12.23;3.25;;;12.40;99.90;;;;;;5117758;28;20134;-83
2021/12/31 04:41:58;;;;;;;13.07;3.53;;;12.40;99.90;;;;;;5110356;28;20401;-83
2021/12/31 04:44:23;;;;;;;9.32;2.67;;;12.40;99.90;;;;;;5108959;28;20035;-83
2021/12/31 04:46:49;;;;;;;8.38;2.88;;;12.40;99.90;;;;;;5109802;28;20036;-81
2021/12/31 04:49:14;;;;;;;9.38;2.38;;;12.40;99.90;;;;;;5113096;28;20136;-77
2021/12/31 04:51:40;;;;;;;10.05;2.38;;;12.40;99.90;;;;;;5118237;28;20035;-82
2021/12/31 04:54:07;;;;;;;9.13;3.40;;;12.40;99.90;;;;;;5119029;28;20482;-81
2021/12/31 04:56:33;;;;;;;10.57;2.58;;;12.40;99.90;;;;;;5113206;28;20742;-82
2021/12/31 04:58:58;;;;;;;7.50;2.08;;;12.30;99.90;;;;;;5106061;28;20044;-83
2021/12/31 05:01:24;;;;;;;5.22;2.65;;;12.30;99.90;;;;;;5113893;28;20047;-83
2021/12/31 05:03:50;;;;;;;11.20;2.95;;;12.20;99.90;;;;;;5122125;28;20125;-82
2021/12/31 05:06:15;;;;;;;6.03;2.10;;;12.20;99.90;;;;;;5123493;28;20040;-83
2021/12/31 05:08:42;;;;;;;6.38;2.08;;;12.10;99.90;;;;;;5120307;28;20126;-84
2021/12/31 05:11:07;;;;;;;10.30;2.80;;;12.10;99.90;;;;;;5108341;28;20035;-84
2021/12/31 05:13:33;;;;;;;7.60;2.58;;;11.90;99.90;;;;;;5090821;28;20038;-82
2021/12/31 05:16:03;;;;;;;5.80;2.45;;;11.90;99.90;;;;;;5109174;28;20043;-83
2021/12/31 05:18:29;;;;;;;12.75;2.80;;;11.80;99.90;;;;;;5098339;28;20620;-83
2021/12/31 05:20:54;;;;;;;14.20;3.42;;;11.80;99.90;;;;;;5112040;28;20163;-84
2021/12/31 05:23:20;;;;;;;7.72;3.20;;;11.70;99.90;;;;;;5114623;28;20050;-84
2021/12/31 05:25:45;;;;;;;13.02;3.30;;;11.70;99.90;;;;;;5088354;28;20082;-83
2021/12/31 05:28:11;;;;;;;8.27;2.08;;;11.80;99.90;;;;;;5109565;28;20442;-82
2021/12/31 05:30:37;;;;;;;8.57;2.38;;;11.90;99.90;;;;;;5127658;28;20519;-83
2021/12/31 05:33:02;;;;;;;7.70;2.45;;;12.00;99.90;;;;;;5102557;28;20069;-82
2021/12/31 05:35:28;;;;;;;7.75;2.05;;;11.90;99.90;;;;;;5074935;28;20067;-84
2021/12/31 05:37:54;;;;;;;8.63;2.30;;;11.90;99.90;;;;;;5117626;28;20378;-82
2021/12/31 05:40:20;;;;;;;6.63;2.97;;;12.00;99.90;;;;;;5094773;28;20039;-85
2021/12/31 05:42:45;;;;;;;9.38;3.40;;;12.00;99.90;;;;;;5093914;28;20039;-84
2021/12/31 05:45:11;;;;;;;5.22;2.20;;;12.00;99.90;;;;;;5113323;28;20478;-85
2021/12/31 05:47:38;;;;;;;5.40;2.08;;;12.00;99.90;;;;;;5111913;27;20031;-83
2021/12/31 05:50:05;;;;;;;9.15;2.78;;;12.10;99.90;;;;;;5118301;27;20034;-83
2021/12/31 05:52:31;;;;;;;6.88;1.92;;;12.10;99.90;;;;;;5112892;27;20513;-84
2021/12/31 05:54:56;;;;;;;5.68;2.30;;;12.00;99.90;;;;;;5081064;27;20032;-84
2021/12/31 05:57:22;;;;;;;11.43;3.00;;;12.10;99.90;;;;;;5099986;28;20567;-83
2021/12/31 05:59:48;;;;;;;6.45;2.05;;;12.10;99.90;;;;;;5121979;27;20042;-84
2021/12/31 06:02:13;;;;;;;11.13;2.47;;;12.10;99.90;;;;;;5107954;27;20062;-78
2021/12/31 06:04:39;;;;;;;4.47;2.15;;;12.10;99.90;;;;;;5132703;27;20031;-83
2021/12/31 06:07:05;;;;;;;7.45;1.83;;;12.10;99.90;;;;;;5120047;27;20509;-84
2021/12/31 06:09:30;;;;;;;7.65;2.00;;;12.10;99.90;;;;;;5130139;27;20035;-82
2021/12/31 06:11:58;;;;;;;6.15;2.00;;;12.10;99.90;;;;;;5120748;27;20048;-83
2021/12/31 06:14:24;;;;;;;3.58;1.77;;;12.10;99.90;;;;;;5117247;27;20528;-82
2021/12/31 06:16:51;;;;;;;7.05;1.65;;;12.10;99.90;;;;;;5115976;27;20047;-82
2021/12/31 06:19:16;;;;;;;11.68;2.70;;;12.10;99.90;;;;;;5123050;27;20382;-81
2021/12/31 06:21:43;;;;;;;6.40;2.28;;;12.10;99.90;;;;;;5118537;27;20044;-82
2021/12/31 06:24:10;;;;;;;8.60;2.65;;;12.10;99.90;;;;;;5099514;28;20040;-80
2021/12/31 06:26:36;;;;;;;4.15;1.90;;;12.10;99.90;;;;;;5121381;27;20059;-85
2021/12/31 06:29:03;;;;;;;8.70;2.05;;;12.20;99.90;;;;;;5112188;27;20056;-79
2021/12/31 06:31:29;;;;;;;6.35;2.15;;;12.10;99.90;;;;;;5092375;28;20088;-84
2021/12/31 06:33:54;;;;;;;5.00;1.90;;;12.00;99.90;;;;;;5113068;27;20490;-84
2021/12/31 06:36:21;;;;;;;4.35;1.65;;;12.00;99.90;;;;;;5113504;27;20039;-82
2021/12/31 06:38:49;;;;;;;13.50;3.13;;;12.00;99.90;;;;;;5124654;27;20039;-84
2021/12/31 06:41:16;;;;;;;4.20;1.60;;;11.90;99.90;;;;;;5092666;27;20127;-78
2021/12/31 06:43:42;;;;;;;4.88;2.05;;;11.90;99.90;;;;;;5094369;28;20047;-83
2021/12/31 06:46:08;;;;;;;6.72;1.83;;;11.90;99.90;;;;;;5114065;27;20086;-84
2021/12/31 06:48:34;;;;;;;6.45;2.08;;;11.90;99.90;;;;;;5129284;27;20408;-83
2021/12/31 06:50:59;;;;;;;10.70;3.35;;;11.80;99.90;;;;;;5114912;27;20028;-86
2021/12/31 06:53:25;;;;;;;6.00;2.38;;;11.90;99.90;;;;;;5118541;27;20100;-84
2021/12/31 06:55:50;;;;;;;6.25;1.83;;;11.90;99.90;;;;;;5099686;27;20565;-84
2021/12/31 06:58:16;;;;;;;3.83;1.85;;;11.90;99.90;;;;;;5111473;27;20126;-82
2021/12/31 07:00:41;;;;;;;9.20;2.40;;;11.90;99.90;;;;;;5115472;27;20117;-84
2021/12/31 07:03:12;;;;;;;3.30;1.50;;;11.90;99.90;;;;;;5104171;28;20046;-83
2021/12/31 07:05:40;;;;;;;;;;;11.90;99.90;;;;;;5093257;28;20044;-82
2021/12/31 07:08:05;;;;;;;7.88;2.40;;;11.90;99.90;;;;;;5093677;27;20327;-84
2021/12/31 07:10:31;;;;;;;3.63;1.90;;;11.90;99.90;;;;;;5115900;27;20047;-82
2021/12/31 07:13:01;;;;;;;6.35;2.17;;;11.90;99.90;;;;;;5124648;27;20043;-85
2021/12/31 07:15:27;;;;;;;3.55;2.53;;;11.90;99.90;;;;;;5092786;27;20592;-85
2021/12/31 07:17:53;;;;;;;5.93;1.42;;;11.90;99.90;;;;;;5128943;27;20046;-84
2021/12/31 07:20:20;;;;;;;2.17;1.60;;;11.80;99.90;;;;;;5123199;27;20031;-84
2021/12/31 07:22:45;;;;;;;9.13;2.15;;;11.70;99.90;;;;;;5120548;27;20040;-82
2021/12/31 07:25:11;;;;;;;7.90;2.30;;;11.70;99.90;;;;;;5123370;27;20489;-84
2021/12/31 07:27:37;;;;;;;4.65;2.25;;;11.70;99.90;;;;;;5105544;27;20047;-83
2021/12/31 07:30:04;;;;;;;5.88;1.98;;;11.60;99.90;;;;;;5123791;27;20548;-82
2021/12/31 07:32:34;;;;;;;2.28;1.33;;;11.70;99.90;;;;;;5118227;27;20054;-84
2021/12/31 07:34:59;;;;;;;6.85;2.03;;;11.60;99.90;;;;;;5113291;27;20043;-84
2021/12/31 07:37:25;;;;;;;8.82;2.08;;;11.50;99.90;;;;;;5117404;27;20481;-82
2021/12/31 07:39:58;;;;;;;5.78;1.92;;;11.60;99.90;;;;;;5112555;27;20034;-86
2021/12/31 07:42:24;;;;;;;4.80;1.92;;;11.70;99.90;;;;;;5122444;27;20103;-85
2021/12/31 07:44:49;;;;;;;7.63;2.35;;;11.70;99.90;;;;;;5140076;27;20446;-83
2021/12/31 07:47:15;;;;;;;5.15;1.73;;;11.80;99.90;;;;;;5125760;27;20031;-81
2021/12/31 07:49:40;;;;;;;8.63;2.22;;;11.90;99.90;;;;;;5132674;27;20096;-80
2021/12/31 07:52:06;;;;;;;9.60;2.40;;;11.80;99.90;;;;;;5111703;28;20043;-82
2021/12/31 07:54:32;;;;;;;5.22;1.42;;;11.80;99.90;;;;;;5105613;28;20086;-83
2021/12/31 07:56:57;;;;;;;6.85;2.20;;;11.90;99.90;;;;;;5115111;27;20039;-83
2021/12/31 07:59:23;;;;;;;3.65;2.10;;;11.80;99.90;;;;;;5125366;27;20124;-83
2021/12/31 08:01:48;;;;;;;4.07;2.20;;;11.80;99.90;;;;;;5091621;28;20054;-83
2021/12/31 08:04:14;;;;;;;6.90;2.45;;;11.80;99.90;;;;;;5092515;28;20135;-82
2021/12/31 08:06:39;;;;;;;5.38;1.83;;;11.70;99.90;;;;;;5115792;27;20504;-84
2021/12/31 08:09:05;;;;;;;5.45;1.80;;;11.80;99.90;;;;;;5126012;27;20051;-86
2021/12/31 08:11:30;;;;;;;7.32;3.00;;;11.70;99.90;;;;;;5106268;27;20070;-85
2021/12/31 08:13:56;;;;;;;9.40;2.47;;;11.70;99.90;;;;;;5111942;27;20043;-83
2021/12/31 08:16:22;;;;;;;6.30;2.63;;;11.70;99.90;;;;;;5110184;27;20642;-84
2021/12/31 08:18:47;;;;;;;4.57;2.30;;;11.80;99.90;;;;;;5110744;27;20043;-85
2021/12/31 08:21:13;;;;;;;8.65;3.20;;;11.80;99.90;;;;;;5111780;27;20413;-80
2021/12/31 08:23:38;;;;;;;3.88;1.98;;;11.80;99.90;;;;;;5116173;27;20057;-84
2021/12/31 08:26:05;;;;;;;6.10;3.30;;;11.70;99.90;;;;;;5097369;28;20146;-84
2021/12/31 08:28:30;;;;;;;6.53;2.78;;;11.70;99.90;;;;;;5099329;28;20081;-84
2021/12/31 08:30:58;;;;;;;4.82;2.83;;;11.70;99.90;;;;;;5111616;28;20045;-86
2021/12/31 08:33:24;;;;;;;11.98;3.75;;;11.70;99.90;;;;;;5097431;27;20039;-84
2021/12/31 08:35:50;;;;;;;4.65;2.10;;;11.70;99.90;;;;;;5127994;28;20043;-85
2021/12/31 08:38:16;;;;;;;3.42;1.95;;;11.80;99.90;;;;;;5120340;28;20042;-85
2021/12/31 08:40:41;;;;;;;5.97;2.75;;;11.70;99.90;;;;;;5116816;28;20524;-83
2021/12/31 08:43:07;;;;;;;8.23;3.33;;;11.80;99.90;;;;;;5124655;28;20506;-84
2021/12/31 08:45:33;;;;;;;3.47;2.03;;;11.80;99.90;;;;;;5129157;28;20035;-84
2021/12/31 08:48:00;;;;;;;6.40;3.45;;;11.80;99.90;;;;;;5091702;28;20043;-84
2021/12/31 08:50:26;;;;;;;4.57;1.80;;;11.80;99.90;;;;;;5094539;28;20031;-84
2021/12/31 08:52:52;;;;;;;7.88;2.30;;;11.80;99.90;;;;;;5119443;28;20047;-85
2021/12/31 08:55:17;;;;;;;5.50;2.60;;;11.80;99.90;;;;;;5101060;28;20043;-81
2021/12/31 08:57:43;;;;;;;5.18;2.67;;;11.80;99.90;;;;;;5109400;28;20497;-83
2021/12/31 09:00:10;;;;;;;13.40;3.67;;;11.70;99.90;;;;;;5110380;28;20035;-83
2021/12/31 09:02:38;;;;;;;6.57;2.67;;;11.70;99.90;;;;;;5098999;28;20485;-83
2021/12/31 09:05:04;;;;;;;7.68;2.45;;;11.70;99.90;;;;;;5109410;28;20122;-81
2021/12/31 09:07:30;;;;;;;6.97;2.72;;;11.70;99.90;;;;;;5111004;28;20081;-83
2021/12/31 09:09:55;;;;;;;8.52;2.92;;;11.70;99.90;;;;;;5094282;28;20036;-84
2021/12/31 09:12:21;;;;;;;5.05;2.40;;;11.60;99.90;;;;;;5094611;28;20059;-82
2021/12/31 09:14:46;;;;;;;4.15;2.05;;;11.60;99.90;;;;;;5129549;27;20077;-86
2021/12/31 09:17:12;;;;;;;5.15;2.35;;;11.60;99.90;;;;;;5134364;27;20057;-85
2021/12/31 09:19:38;;;;;;;5.43;3.17;;;11.60;99.90;;;;;;5119486;27;20039;-84
2021/12/31 09:22:04;;;;;;;8.85;3.80;;;11.60;99.90;;;;;;5100181;28;20493;-86
2021/12/31 09:24:31;;;;;;;4.88;2.85;;;11.70;99.90;;;;;;5130830;27;20063;-85
2021/12/31 09:26:56;;;;;;;4.88;2.22;;;11.60;99.90;;;;;;5101904;28;20054;-82
2021/12/31 09:29:23;;;;;;;7.93;2.72;;;11.60;99.90;;;;;;5092793;28;20040;-82
2021/12/31 09:31:49;;;;;;;6.28;2.88;;;11.50;99.90;;;;;;5101847;28;20048;-83
2021/12/31 09:34:15;;;;;;;4.85;2.42;;;11.60;99.90;;;;;;5093347;28;20448;-82
2021/12/31 09:36:41;;;;;;;7.65;2.78;;;11.60;99.90;;;;;;5096981;28;20040;-84
2021/12/31 09:39:07;;;;;;;6.43;2.42;;;11.50;99.90;;;;;;5105429;28;20039;-82
2021/12/31 09:41:33;;;;;;;3.60;2.22;;;11.50;99.90;;;;;;5094346;28;20126;-82
2021/12/31 09:43:58;;;;;;;6.60;2.78;;;11.50;99.90;;;;;;5107272;28;20044;-82
2021/12/31 09:46:24;;;;;;;7.03;3.33;;;11.50;99.90;;;;;;5095642;28;20486;-82
2021/12/31 09:48:50;;;;;;;9.23;2.38;;;11.50;99.90;;;;;;5093209;28;20048;-81
2021/12/31 09:51:17;;;;;;;8.93;3.33;;;11.40;99.90;;;;;;5095813;28;20054;-82
2021/12/31 09:53:43;;;;;;;6.32;2.92;;;11.40;99.90;;;;;;5092561;28;20406;-79
2021/12/31 09:56:09;;;;;;;8.88;3.50;;;11.30;99.90;;;;;;5099732;28;20039;-80
2021/12/31 09:58:36;;;;;;;5.18;3.05;;;11.30;99.90;;;;;;5111427;28;20101;-82
2021/12/31 10:01:02;;;;;;;6.45;2.60;;;11.30;99.90;;;;;;5073974;28;20382;-78
2021/12/31 10:03:32;;;;;;;7.38;2.40;;;11.30;99.90;;;;;;5097113;28;20089;-87
2021/12/31 10:06:08;;;;;;;8.00;3.65;;;11.30;99.90;;;;;;5107008;28;20039;-87
2021/12/31 10:08:45;;;;;;;6.57;2.63;;;11.30;99.90;;;;;;5073770;28;20089;-84
2021/12/31 10:11:21;;;;;;;8.95;3.45;;;11.30;99.90;;;;;;5111063;28;20048;-85
2021/12/31 10:13:56;;;;;;;10.32;3.05;;;11.30;99.90;;;;;;5092722;28;20455;-83
2021/12/31 10:16:41;;;;;;;8.48;4.03;;;11.30;99.90;;;;;;5104648;28;20075;-84
2021/12/31 10:19:12;;;;;;;7.80;3.85;;;11.20;99.90;;;;;;5093888;28;20059;-81
2021/12/31 10:21:41;;;;;;;10.88;3.55;;;11.20;99.90;;;;;;5092239;28;20040;-85
2021/12/31 10:24:47;;;;;;;9.98;3.45;;;11.20;99.90;;;;;;5097482;28;20184;-87
2021/12/31 10:27:13;;;;;;;10.45;3.83;;;11.20;99.90;;;;;;5027735;28;20057;-79
2021/12/31 10:30:03;;;;;;;12.63;4.07;;;11.20;99.90;;;;;;5029835;28;20091;-86
2021/12/31 10:32:35;;;;;;;6.03;2.58;;;11.20;99.90;;;;;;5075335;28;20432;-85
2021/12/31 10:35:19;;;;;;;7.63;3.45;;;11.20;99.90;;;;;;5092577;28;20418;-86
2021/12/31 10:37:46;;;;;;;10.00;3.55;;;11.10;99.90;;;;;;5098990;28;20097;-85
2021/12/31 10:40:29;;;;;;;11.20;3.53;;;11.10;99.90;;;;;;5097420;28;20083;-85
2021/12/31 10:43:16;;;;;;;8.18;4.03;;;11.00;99.90;;;;;;5111618;28;20048;-74
2021/12/31 10:45:56;;;;;;;9.00;3.88;;;11.00;99.90;;;;;;5126751;28;20055;-83
2021/12/31 10:48:21;;;;;;;8.20;3.83;;;11.00;99.90;;;;;;5111590;28;20094;-86
2021/12/31 10:50:52;;;;;;;7.43;3.85;;;11.00;99.90;;;;;;5109018;28;20478;-88
2021/12/31 10:53:33;;;;;;;12.65;3.92;;;11.00;99.90;;;;;;5074612;28;20502;-83
2021/12/31 10:56:08;;;;;;;;;;;11.10;99.90;;;;;;5093909;28;20052;-86
2021/12/31 10:58:35;;;;;;;9.85;4.47;;;11.10;99.90;;;;;;5104360;28;19931;-85
2021/12/31 11:01:05;;;;;;;11.18;3.83;;;11.10;99.90;;;;;;5090039;28;20462;-86
2021/12/31 11:03:31;;;;;;;14.95;9.15;;;11.10;99.90;;;;;;5109583;28;20043;-84
2021/12/31 11:05:57;;;;;;;10.10;5.45;;;11.10;99.90;;;;;;5110866;28;20067;-84
2021/12/31 11:08:23;;;;;;;9.80;4.95;;;11.10;99.90;;;;;;5104143;28;20059;-84
2021/12/31 11:10:51;;;;;;;12.32;4.60;;;11.10;99.90;;;;;;5090671;28;20134;-83
2021/12/31 11:13:19;;;;;;;14.85;4.43;;;11.00;99.90;;;;;;5090201;28;20040;-84
2021/12/31 11:15:46;;;;;;;7.80;4.07;;;11.00;99.90;;;;;;5092514;28;20118;-84
2021/12/31 11:18:13;;;;;;;8.48;3.85;;;11.10;99.90;;;;;;5110724;28;20053;-84
2021/12/31 11:20:41;;;;;;;8.90;3.45;;;11.10;99.90;;;;;;5096607;28;20044;-85
2021/12/31 11:23:06;;;;;;;7.82;3.92;;;11.10;99.90;;;;;;5106449;28;20044;-85
2021/12/31 11:25:32;;;;;;;13.80;3.70;;;11.10;99.90;;;;;;5115695;27;21047;-82
2021/12/31 11:27:58;;;;;;;8.45;3.33;;;11.10;99.90;;;;;;5095309;28;20043;-82
2021/12/31 11:30:31;;;;;;;8.38;4.20;;;11.10;99.90;;;;;;5109128;27;20048;-80
2021/12/31 11:32:59;;;;;;;10.40;4.30;;;11.00;99.90;;;;;;5117913;27;20089;-81
2021/12/31 11:35:32;;;;;;;10.95;4.28;;;11.00;99.90;;;;;;5110176;27;20047;-80
2021/12/31 11:38:00;;;;;;;11.40;4.25;;;10.90;99.90;;;;;;5108606;27;20058;-79
2021/12/31 11:40:37;;;;;;;14.02;4.57;;;10.90;99.90;;;;;;5091009;27;20082;-82
2021/12/31 11:43:16;;;;;;;14.50;5.45;;;10.90;99.90;;;;;;5092862;28;20055;-82
2021/12/31 11:45:42;;;;;;;12.82;4.80;;;10.90;99.90;;;;;;5119908;27;20047;-82
2021/12/31 11:48:48;;;;;;;12.85;4.97;;;10.80;99.90;;;;;;5093179;27;20042;-81
2021/12/31 11:51:21;;;;;;;14.70;5.38;;;10.80;99.90;;;;;;5103671;28;20138;-82
2021/12/31 11:53:56;;;;;;;17.20;6.60;;;10.80;99.90;;;;;;5102685;28;20093;-81
2021/12/31 11:56:37;;;;;;;11.75;5.97;;;10.80;99.90;;;;;;5101821;27;20138;-78
2021/12/31 11:59:16;;;;;;;20.77;5.90;;;10.80;99.90;;;;;;5112562;27;20126;-80
2021/12/31 12:01:51;;;;;;;30.02;6.68;;;10.70;99.90;;;;;;5128482;27;20043;-79
2021/12/31 12:04:26;;;;;;;16.95;6.20;;;10.80;99.90;;;;;;5106828;28;20109;-77
2021/12/31 12:06:57;;;;;;;16.90;6.28;;;10.70;99.90;;;;;;5099766;27;20050;-78
2021/12/31 12:09:43;;;;;;;14.43;6.47;;;10.70;99.90;;;;;;5120347;27;20097;-78
2021/12/31 12:12:26;;;;;;;14.77;5.45;;;10.70;99.90;;;;;;5069904;27;20408;-79
2021/12/31 12:14:56;;;;;;;8.57;3.83;;;10.70;99.90;;;;;;5113132;27;20043;-79
2021/12/31 12:17:31;;;;;;;10.82;5.45;;;10.70;99.90;;;;;;5109036;28;20061;-80
2021/12/31 12:20:05;;;;;;;12.05;4.88;;;10.80;99.90;;;;;;5109924;28;20063;-79
2021/12/31 12:22:39;;;;;;;10.65;4.88;;;10.80;99.90;;;;;;5109611;27;20054;-80
2021/12/31 12:25:07;;;;;;;14.43;5.22;;;10.80;99.90;;;;;;5115137;27;20153;-79
2021/12/31 12:27:33;;;;;;;8.82;6.78;;;10.70;99.90;;;;;;5092744;28;20576;-80
2021/12/31 12:30:01;;;;;;;11.82;5.18;;;10.80;99.90;;;;;;5091413;28;20421;-77
2021/12/31 12:32:40;;;;;;;15.88;6.00;;;10.70;99.90;;;;;;5108903;28;20043;-83
2021/12/31 12:35:15;;;;;;;10.13;4.88;;;10.70;99.90;;;;;;5117062;27;20541;-83
2021/12/31 12:37:42;;;;;;;11.10;5.28;;;10.80;99.90;;;;;;5099981;28;20436;-82
2021/12/31 12:40:09;;;;;;;8.80;4.35;;;10.80;99.90;;;;;;5113577;28;20509;-82
2021/12/31 12:42:34;;;;;;;10.30;4.53;;;10.80;99.90;;;;;;5108811;28;20051;-82
2021/12/31 12:45:04;;;;;;;9.80;4.75;;;10.80;99.90;;;;;;5112756;28;20051;-82
2021/12/31 12:47:30;;;;;;;8.43;5.47;;;10.80;99.90;;;;;;5100785;28;20051;-81
2021/12/31 12:50:01;;;;;;;10.30;5.63;;;10.90;99.90;;;;;;5112814;27;20115;-80
2021/12/31 12:52:27;;;;;;;5.82;4.32;;;10.80;99.90;;;;;;5101316;27;20126;-83